sensor_id;sensor_type;location;lat;lon;timestamp;temperature;humidity
39777;DHT22;25453;48.162;14.510;2023-12-28T00:00:20;6.10;68.90
39777;DHT22;25453;48.162;14.510;2023-12-28T00:02:47;6.20;69.30
39777;DHT22;25453;48.162;14.510;2023-12-28T00:05:14;6.20;69.00
39777;DHT22;25453;48.162;14.510;2023-12-28T00:07:42;6.20;68.70
39777;DHT22;25453;48.162;14.510;2023-12-28T00:10:09;6.20;68.80
39777;DHT22;25453;48.162;14.510;2023-12-28T00:12:37;6.20;68.60
39777;DHT22;25453;48.162;14.510;2023-12-28T00:15:04;6.20;68.70
39777;DHT22;25453;48.162;14.510;2023-12-28T00:17:34;6.20;68.60
39777;DHT22;25453;48.162;14.510;2023-12-28T00:20:09;6.10;68.50
39777;DHT22;25453;48.162;14.510;2023-12-28T00:22:36;6.00;68.40
39777;DHT22;25453;48.162;14.510;2023-12-28T00:25:06;6.00;68.30
39777;DHT22;25453;48.162;14.510;2023-12-28T00:27:34;5.90;68.30
39777;DHT22;25453;48.162;14.510;2023-12-28T00:30:02;5.90;68.30
39777;DHT22;25453;48.162;14.510;2023-12-28T00:32:29;5.80;68.50
39777;DHT22;25453;48.162;14.510;2023-12-28T00:34:57;5.90;68.70
39777;DHT22;25453;48.162;14.510;2023-12-28T00:37:24;5.80;68.50
39777;DHT22;25453;48.162;14.510;2023-12-28T00:39:51;5.80;68.80
39777;DHT22;25453;48.162;14.510;2023-12-28T00:42:19;5.80;69.00
39777;DHT22;25453;48.162;14.510;2023-12-28T00:44:46;5.90;69.10
39777;DHT22;25453;48.162;14.510;2023-12-28T00:47:13;5.90;69.20
39777;DHT22;25453;48.162;14.510;2023-12-28T00:49:41;5.90;69.30
39777;DHT22;25453;48.162;14.510;2023-12-28T00:52:08;6.00;69.60
39777;DHT22;25453;48.162;14.510;2023-12-28T00:54:38;6.00;68.80
39777;DHT22;25453;48.162;14.510;2023-12-28T00:57:06;6.00;68.40
39777;DHT22;25453;48.162;14.510;2023-12-28T00:59:33;6.00;68.60
39777;DHT22;25453;48.162;14.510;2023-12-28T01:02:00;6.00;68.80
39777;DHT22;25453;48.162;14.510;2023-12-28T01:04:27;6.00;68.60
39777;DHT22;25453;48.162;14.510;2023-12-28T01:06:55;6.00;68.50
39777;DHT22;25453;48.162;14.510;2023-12-28T01:09:23;6.00;68.60
39777;DHT22;25453;48.162;14.510;2023-12-28T01:11:50;5.90;68.30
39777;DHT22;25453;48.162;14.510;2023-12-28T01:14:17;5.90;68.40
39777;DHT22;25453;48.162;14.510;2023-12-28T01:16:45;5.80;68.30
39777;DHT22;25453;48.162;14.510;2023-12-28T01:19:12;5.80;68.40
39777;DHT22;25453;48.162;14.510;2023-12-28T01:21:39;5.80;68.40
39777;DHT22;25453;48.162;14.510;2023-12-28T01:24:07;5.70;68.50
39777;DHT22;25453;48.162;14.510;2023-12-28T01:26:34;5.80;68.70
39777;DHT22;25453;48.162;14.510;2023-12-28T01:29:01;5.80;68.70
39777;DHT22;25453;48.162;14.510;2023-12-28T01:31:30;5.80;68.60
39777;DHT22;25453;48.162;14.510;2023-12-28T01:33:57;5.80;68.70
39777;DHT22;25453;48.162;14.510;2023-12-28T01:36:25;5.80;68.70
39777;DHT22;25453;48.162;14.510;2023-12-28T01:38:53;5.70;68.50
39777;DHT22;25453;48.162;14.510;2023-12-28T01:41:20;5.80;68.60
39777;DHT22;25453;48.162;14.510;2023-12-28T01:43:48;5.70;68.00
39777;DHT22;25453;48.162;14.510;2023-12-28T01:46:20;5.70;67.90
39777;DHT22;25453;48.162;14.510;2023-12-28T01:48:49;5.60;68.00
39777;DHT22;25453;48.162;14.510;2023-12-28T01:51:19;5.60;68.00
39777;DHT22;25453;48.162;14.510;2023-12-28T01:53:48;5.50;67.90
39777;DHT22;25453;48.162;14.510;2023-12-28T01:56:18;5.50;68.20
39777;DHT22;25453;48.162;14.510;2023-12-28T01:58:48;5.50;68.50
39777;DHT22;25453;48.162;14.510;2023-12-28T02:01:17;5.50;68.70
39777;DHT22;25453;48.162;14.510;2023-12-28T02:03:45;5.60;68.90
39777;DHT22;25453;48.162;14.510;2023-12-28T02:06:14;5.60;68.30
39777;DHT22;25453;48.162;14.510;2023-12-28T02:08:43;5.60;68.20
39777;DHT22;25453;48.162;14.510;2023-12-28T02:11:11;5.60;68.50
39777;DHT22;25453;48.162;14.510;2023-12-28T02:13:38;5.70;68.20
39777;DHT22;25453;48.162;14.510;2023-12-28T02:16:15;5.60;67.90
39777;DHT22;25453;48.162;14.510;2023-12-28T02:18:44;5.50;67.60
39777;DHT22;25453;48.162;14.510;2023-12-28T02:21:13;5.50;68.10
39777;DHT22;25453;48.162;14.510;2023-12-28T02:23:47;5.50;67.90
39777;DHT22;25453;48.162;14.510;2023-12-28T02:26:17;5.50;67.90
39777;DHT22;25453;48.162;14.510;2023-12-28T02:28:45;5.50;67.70
39777;DHT22;25453;48.162;14.510;2023-12-28T02:31:21;5.40;67.80
39777;DHT22;25453;48.162;14.510;2023-12-28T02:34:06;5.40;68.10
39777;DHT22;25453;48.162;14.510;2023-12-28T02:36:36;5.40;68.20
39777;DHT22;25453;48.162;14.510;2023-12-28T02:39:05;5.30;68.30
39777;DHT22;25453;48.162;14.510;2023-12-28T02:41:34;5.30;68.40
39777;DHT22;25453;48.162;14.510;2023-12-28T02:44:01;5.30;68.40
39777;DHT22;25453;48.162;14.510;2023-12-28T02:46:29;5.30;68.60
39777;DHT22;25453;48.162;14.510;2023-12-28T02:48:56;5.40;68.90
39777;DHT22;25453;48.162;14.510;2023-12-28T02:51:26;5.40;68.50
39777;DHT22;25453;48.162;14.510;2023-12-28T02:53:54;5.40;68.20
39777;DHT22;25453;48.162;14.510;2023-12-28T02:56:21;5.30;68.10
39777;DHT22;25453;48.162;14.510;2023-12-28T02:58:48;5.30;68.30
39777;DHT22;25453;48.162;14.510;2023-12-28T03:01:15;5.30;68.30
39777;DHT22;25453;48.162;14.510;2023-12-28T03:03:43;5.30;68.30
39777;DHT22;25453;48.162;14.510;2023-12-28T03:06:10;5.30;68.10
39777;DHT22;25453;48.162;14.510;2023-12-28T03:08:37;5.20;68.20
39777;DHT22;25453;48.162;14.510;2023-12-28T03:11:05;5.20;68.00
39777;DHT22;25453;48.162;14.510;2023-12-28T03:13:32;5.20;67.80
39777;DHT22;25453;48.162;14.510;2023-12-28T03:15:59;5.10;67.90
39777;DHT22;25453;48.162;14.510;2023-12-28T03:18:27;5.10;67.80
39777;DHT22;25453;48.162;14.510;2023-12-28T03:20:54;5.10;67.70
39777;DHT22;25453;48.162;14.510;2023-12-28T03:23:21;5.00;67.80
39777;DHT22;25453;48.162;14.510;2023-12-28T03:25:48;5.00;68.30
39777;DHT22;25453;48.162;14.510;2023-12-28T03:28:16;5.10;68.60
39777;DHT22;25453;48.162;14.510;2023-12-28T03:30:43;5.20;68.80
39777;DHT22;25453;48.162;14.510;2023-12-28T03:33:10;5.20;68.50
39777;DHT22;25453;48.162;14.510;2023-12-28T03:35:38;5.20;68.10
39777;DHT22;25453;48.162;14.510;2023-12-28T03:38:05;5.10;67.90
39777;DHT22;25453;48.162;14.510;2023-12-28T03:40:32;5.10;68.00
39777;DHT22;25453;48.162;14.510;2023-12-28T03:42:59;5.10;68.10
39777;DHT22;25453;48.162;14.510;2023-12-28T03:45:27;5.10;68.60
39777;DHT22;25453;48.162;14.510;2023-12-28T03:47:54;5.20;68.90
39777;DHT22;25453;48.162;14.510;2023-12-28T03:50:21;5.20;68.60
39777;DHT22;25453;48.162;14.510;2023-12-28T03:52:48;5.20;68.00
39777;DHT22;25453;48.162;14.510;2023-12-28T03:55:16;5.20;68.10
39777;DHT22;25453;48.162;14.510;2023-12-28T03:57:43;5.20;68.20
39777;DHT22;25453;48.162;14.510;2023-12-28T04:00:13;5.20;68.50
39777;DHT22;25453;48.162;14.510;2023-12-28T04:02:42;5.20;68.20
39777;DHT22;25453;48.162;14.510;2023-12-28T04:05:09;5.20;68.10
39777;DHT22;25453;48.162;14.510;2023-12-28T04:07:36;5.10;68.00
39777;DHT22;25453;48.162;14.510;2023-12-28T04:10:04;5.10;68.10
39777;DHT22;25453;48.162;14.510;2023-12-28T04:12:32;5.10;68.60
39777;DHT22;25453;48.162;14.510;2023-12-28T04:14:59;5.10;68.30
39777;DHT22;25453;48.162;14.510;2023-12-28T04:17:27;5.10;68.10
39777;DHT22;25453;48.162;14.510;2023-12-28T04:19:54;5.20;68.60
39777;DHT22;25453;48.162;14.510;2023-12-28T04:22:22;5.30;68.40
39777;DHT22;25453;48.162;14.510;2023-12-28T04:24:49;5.20;67.90
39777;DHT22;25453;48.162;14.510;2023-12-28T04:27:16;5.20;67.90
39777;DHT22;25453;48.162;14.510;2023-12-28T04:29:43;5.20;67.60
39777;DHT22;25453;48.162;14.510;2023-12-28T04:32:11;5.10;67.50
39777;DHT22;25453;48.162;14.510;2023-12-28T04:34:38;5.00;67.40
39777;DHT22;25453;48.162;14.510;2023-12-28T04:37:05;5.00;67.40
39777;DHT22;25453;48.162;14.510;2023-12-28T04:39:33;4.90;67.40
39777;DHT22;25453;48.162;14.510;2023-12-28T04:42:00;4.90;67.70
39777;DHT22;25453;48.162;14.510;2023-12-28T04:44:27;4.90;68.00
39777;DHT22;25453;48.162;14.510;2023-12-28T04:46:55;4.90;67.70
39777;DHT22;25453;48.162;14.510;2023-12-28T04:49:22;4.90;67.80
39777;DHT22;25453;48.162;14.510;2023-12-28T04:51:50;4.90;68.00
39777;DHT22;25453;48.162;14.510;2023-12-28T04:54:17;4.90;68.10
39777;DHT22;25453;48.162;14.510;2023-12-28T04:56:44;4.90;67.80
39777;DHT22;25453;48.162;14.510;2023-12-28T04:59:12;4.90;67.30
39777;DHT22;25453;48.162;14.510;2023-12-28T05:01:42;4.80;67.50
39777;DHT22;25453;48.162;14.510;2023-12-28T05:04:11;4.90;68.10
39777;DHT22;25453;48.162;14.510;2023-12-28T05:06:43;4.90;68.00
39777;DHT22;25453;48.162;14.510;2023-12-28T05:09:11;4.90;67.50
39777;DHT22;25453;48.162;14.510;2023-12-28T05:11:39;4.90;67.40
39777;DHT22;25453;48.162;14.510;2023-12-28T05:14:06;4.90;67.70
39777;DHT22;25453;48.162;14.510;2023-12-28T05:16:36;4.90;67.80
39777;DHT22;25453;48.162;14.510;2023-12-28T05:19:04;4.90;67.20
39777;DHT22;25453;48.162;14.510;2023-12-28T05:21:31;4.90;67.10
39777;DHT22;25453;48.162;14.510;2023-12-28T05:23:59;4.80;66.90
39777;DHT22;25453;48.162;14.510;2023-12-28T05:26:26;4.70;66.90
39777;DHT22;25453;48.162;14.510;2023-12-28T05:28:54;4.70;66.80
39777;DHT22;25453;48.162;14.510;2023-12-28T05:31:21;4.60;67.10
39777;DHT22;25453;48.162;14.510;2023-12-28T05:33:49;4.60;67.40
39777;DHT22;25453;48.162;14.510;2023-12-28T05:36:16;4.60;67.60
39777;DHT22;25453;48.162;14.510;2023-12-28T05:38:44;4.60;67.70
39777;DHT22;25453;48.162;14.510;2023-12-28T05:41:11;4.70;67.60
39777;DHT22;25453;48.162;14.510;2023-12-28T05:43:41;4.70;67.50
39777;DHT22;25453;48.162;14.510;2023-12-28T05:46:08;4.70;67.50
39777;DHT22;25453;48.162;14.510;2023-12-28T05:48:36;4.70;67.30
39777;DHT22;25453;48.162;14.510;2023-12-28T05:51:04;4.60;67.10
39777;DHT22;25453;48.162;14.510;2023-12-28T05:53:31;4.60;67.40
39777;DHT22;25453;48.162;14.510;2023-12-28T05:55:58;4.60;67.30
39777;DHT22;25453;48.162;14.510;2023-12-28T05:58:30;4.60;67.20
39777;DHT22;25453;48.162;14.510;2023-12-28T06:00:57;4.60;67.00
39777;DHT22;25453;48.162;14.510;2023-12-28T06:03:25;4.50;66.90
39777;DHT22;25453;48.162;14.510;2023-12-28T06:05:55;4.40;66.80
39777;DHT22;25453;48.162;14.510;2023-12-28T06:08:23;4.40;66.90
39777;DHT22;25453;48.162;14.510;2023-12-28T06:10:54;4.40;67.20
39777;DHT22;25453;48.162;14.510;2023-12-28T06:13:21;4.50;67.40
39777;DHT22;25453;48.162;14.510;2023-12-28T06:15:48;4.50;67.10
39777;DHT22;25453;48.162;14.510;2023-12-28T06:18:15;4.50;67.10
39777;DHT22;25453;48.162;14.510;2023-12-28T06:20:43;4.50;66.70
39777;DHT22;25453;48.162;14.510;2023-12-28T06:23:10;4.40;66.30
39777;DHT22;25453;48.162;14.510;2023-12-28T06:25:37;4.40;66.50
39777;DHT22;25453;48.162;14.510;2023-12-28T06:28:05;4.30;66.60
39777;DHT22;25453;48.162;14.510;2023-12-28T06:30:32;4.30;66.70
39777;DHT22;25453;48.162;14.510;2023-12-28T06:32:59;4.30;66.70
39777;DHT22;25453;48.162;14.510;2023-12-28T06:35:27;4.30;67.00
39777;DHT22;25453;48.162;14.510;2023-12-28T06:37:54;4.30;67.20
39777;DHT22;25453;48.162;14.510;2023-12-28T06:40:22;4.30;66.80
39777;DHT22;25453;48.162;14.510;2023-12-28T06:42:49;4.20;66.90
39777;DHT22;25453;48.162;14.510;2023-12-28T06:45:17;4.20;67.10
39777;DHT22;25453;48.162;14.510;2023-12-28T06:47:44;4.30;67.30
39777;DHT22;25453;48.162;14.510;2023-12-28T06:50:11;4.30;67.60
39777;DHT22;25453;48.162;14.510;2023-12-28T06:52:39;4.30;67.30
39777;DHT22;25453;48.162;14.510;2023-12-28T06:55:06;4.30;67.40
39777;DHT22;25453;48.162;14.510;2023-12-28T06:57:33;4.30;68.10
39777;DHT22;25453;48.162;14.510;2023-12-28T07:00:01;4.40;68.20
39777;DHT22;25453;48.162;14.510;2023-12-28T07:02:29;4.40;68.00
39777;DHT22;25453;48.162;14.510;2023-12-28T07:04:57;4.40;67.90
39777;DHT22;25453;48.162;14.510;2023-12-28T07:07:24;4.30;68.00
39777;DHT22;25453;48.162;14.510;2023-12-28T07:09:51;4.30;68.40
39777;DHT22;25453;48.162;14.510;2023-12-28T07:12:18;4.30;68.60
39777;DHT22;25453;48.162;14.510;2023-12-28T07:14:47;4.30;68.80
39777;DHT22;25453;48.162;14.510;2023-12-28T07:17:14;4.30;69.40
39777;DHT22;25453;48.162;14.510;2023-12-28T07:19:44;4.30;69.40
39777;DHT22;25453;48.162;14.510;2023-12-28T07:22:11;4.40;69.90
39777;DHT22;25453;48.162;14.510;2023-12-28T07:24:38;4.50;70.10
39777;DHT22;25453;48.162;14.510;2023-12-28T07:27:06;4.50;69.90
39777;DHT22;25453;48.162;14.510;2023-12-28T07:29:33;4.50;69.70
39777;DHT22;25453;48.162;14.510;2023-12-28T07:32:00;4.50;69.70
39777;DHT22;25453;48.162;14.510;2023-12-28T07:34:27;4.50;69.80
39777;DHT22;25453;48.162;14.510;2023-12-28T07:36:55;4.40;70.00
39777;DHT22;25453;48.162;14.510;2023-12-28T07:39:22;4.40;70.00
39777;DHT22;25453;48.162;14.510;2023-12-28T07:41:49;4.40;70.00
39777;DHT22;25453;48.162;14.510;2023-12-28T07:44:17;4.40;70.10
39777;DHT22;25453;48.162;14.510;2023-12-28T07:46:44;4.40;70.20
39777;DHT22;25453;48.162;14.510;2023-12-28T07:49:11;4.40;70.20
39777;DHT22;25453;48.162;14.510;2023-12-28T07:51:39;4.50;70.20
39777;DHT22;25453;48.162;14.510;2023-12-28T07:54:06;4.50;70.10
39777;DHT22;25453;48.162;14.510;2023-12-28T07:56:33;4.50;70.10
39777;DHT22;25453;48.162;14.510;2023-12-28T07:59:01;4.40;70.10
39777;DHT22;25453;48.162;14.510;2023-12-28T08:01:28;4.50;70.60
39777;DHT22;25453;48.162;14.510;2023-12-28T08:03:55;4.60;70.70
39777;DHT22;25453;48.162;14.510;2023-12-28T08:06:22;4.70;70.20
39777;DHT22;25453;48.162;14.510;2023-12-28T08:08:50;4.70;70.10
39777;DHT22;25453;48.162;14.510;2023-12-28T08:11:17;4.80;70.20
39777;DHT22;25453;48.162;14.510;2023-12-28T08:13:44;4.80;69.90
39777;DHT22;25453;48.162;14.510;2023-12-28T08:16:14;4.90;69.80
39777;DHT22;25453;48.162;14.510;2023-12-28T08:18:41;4.90;69.60
39777;DHT22;25453;48.162;14.510;2023-12-28T08:21:08;4.90;69.40
39777;DHT22;25453;48.162;14.510;2023-12-28T08:23:36;4.90;69.40
39777;DHT22;25453;48.162;14.510;2023-12-28T08:26:03;4.90;69.40
39777;DHT22;25453;48.162;14.510;2023-12-28T08:28:31;4.90;69.30
39777;DHT22;25453;48.162;14.510;2023-12-28T08:30:59;4.90;69.10
39777;DHT22;25453;48.162;14.510;2023-12-28T08:33:26;4.80;69.20
39777;DHT22;25453;48.162;14.510;2023-12-28T08:35:53;4.80;69.50
39777;DHT22;25453;48.162;14.510;2023-12-28T08:38:21;4.90;69.70
39777;DHT22;25453;48.162;14.510;2023-12-28T08:40:48;4.90;69.70
39777;DHT22;25453;48.162;14.510;2023-12-28T08:43:15;5.00;69.80
39777;DHT22;25453;48.162;14.510;2023-12-28T08:45:43;5.10;69.80
39777;DHT22;25453;48.162;14.510;2023-12-28T08:48:10;5.10;69.60
39777;DHT22;25453;48.162;14.510;2023-12-28T08:50:37;5.20;69.70
39777;DHT22;25453;48.162;14.510;2023-12-28T08:53:04;5.20;69.60
39777;DHT22;25453;48.162;14.510;2023-12-28T08:55:32;5.30;69.60
39777;DHT22;25453;48.162;14.510;2023-12-28T08:58:00;5.40;69.40
39777;DHT22;25453;48.162;14.510;2023-12-28T09:00:28;5.50;69.10
39777;DHT22;25453;48.162;14.510;2023-12-28T09:02:56;5.60;69.10
39777;DHT22;25453;48.162;14.510;2023-12-28T09:05:23;5.80;69.50
39777;DHT22;25453;48.162;14.510;2023-12-28T09:07:50;6.10;69.60
39777;DHT22;25453;48.162;14.510;2023-12-28T09:10:17;6.60;70.60
39777;DHT22;25453;48.162;14.510;2023-12-28T09:12:45;7.50;71.80
39777;DHT22;25453;48.162;14.510;2023-12-28T09:15:12;8.10;69.70
39777;DHT22;25453;48.162;14.510;2023-12-28T09:17:39;8.50;66.90
39777;DHT22;25453;48.162;14.510;2023-12-28T09:20:07;8.70;66.30
39777;DHT22;25453;48.162;14.510;2023-12-28T09:22:35;9.10;66.80
39777;DHT22;25453;48.162;14.510;2023-12-28T09:25:02;9.60;66.50
39777;DHT22;25453;48.162;14.510;2023-12-28T09:27:30;10.20;66.00
39777;DHT22;25453;48.162;14.510;2023-12-28T09:29:58;11.00;66.20
39777;DHT22;25453;48.162;14.510;2023-12-28T09:32:25;12.00;65.20
39777;DHT22;25453;48.162;14.510;2023-12-28T09:34:52;12.90;63.40
39777;DHT22;25453;48.162;14.510;2023-12-28T09:37:19;13.70;61.40
39777;DHT22;25453;48.162;14.510;2023-12-28T09:39:47;14.30;59.10
39777;DHT22;25453;48.162;14.510;2023-12-28T09:42:25;14.80;57.10
39777;DHT22;25453;48.162;14.510;2023-12-28T09:44:54;15.30;55.20
39777;DHT22;25453;48.162;14.510;2023-12-28T09:47:21;15.70;53.80
39777;DHT22;25453;48.162;14.510;2023-12-28T09:49:49;15.90;52.40
39777;DHT22;25453;48.162;14.510;2023-12-28T09:52:16;16.00;51.50
39777;DHT22;25453;48.162;14.510;2023-12-28T09:54:44;16.00;50.50
39777;DHT22;25453;48.162;14.510;2023-12-28T09:57:11;15.90;49.30
39777;DHT22;25453;48.162;14.510;2023-12-28T09:59:39;15.40;47.70
39777;DHT22;25453;48.162;14.510;2023-12-28T10:02:08;14.40;46.90
39777;DHT22;25453;48.162;14.510;2023-12-28T10:04:36;13.40;47.70
39777;DHT22;25453;48.162;14.510;2023-12-28T10:07:04;12.40;48.60
39777;DHT22;25453;48.162;14.510;2023-12-28T10:09:31;11.50;49.70
39777;DHT22;25453;48.162;14.510;2023-12-28T10:12:00;10.60;50.20
39777;DHT22;25453;48.162;14.510;2023-12-28T10:14:29;9.90;51.30
39777;DHT22;25453;48.162;14.510;2023-12-28T10:16:58;9.40;52.80
39777;DHT22;25453;48.162;14.510;2023-12-28T10:19:25;9.00;53.80
39777;DHT22;25453;48.162;14.510;2023-12-28T10:21:53;8.70;54.50
39777;DHT22;25453;48.162;14.510;2023-12-28T10:24:20;8.40;55.10
39777;DHT22;25453;48.162;14.510;2023-12-28T10:26:48;8.10;56.10
39777;DHT22;25453;48.162;14.510;2023-12-28T10:29:16;7.80;56.90
39777;DHT22;25453;48.162;14.510;2023-12-28T10:31:44;7.60;57.70
39777;DHT22;25453;48.162;14.510;2023-12-28T10:34:18;7.40;58.30
39777;DHT22;25453;48.162;14.510;2023-12-28T10:36:46;7.30;59.00
39777;DHT22;25453;48.162;14.510;2023-12-28T10:39:16;7.10;59.50
39777;DHT22;25453;48.162;14.510;2023-12-28T10:41:49;7.00;60.40
39777;DHT22;25453;48.162;14.510;2023-12-28T10:44:20;6.80;61.00
39777;DHT22;25453;48.162;14.510;2023-12-28T10:46:55;6.80;61.50
39777;DHT22;25453;48.162;14.510;2023-12-28T10:49:25;6.70;62.00
39777;DHT22;25453;48.162;14.510;2023-12-28T10:51:53;6.70;62.60
39777;DHT22;25453;48.162;14.510;2023-12-28T10:57:48;6.60;63.50
39777;DHT22;25453;48.162;14.510;2023-12-28T11:00:22;6.60;64.00
39777;DHT22;25453;48.162;14.510;2023-12-28T11:02:52;6.60;64.30
39777;DHT22;25453;48.162;14.510;2023-12-28T11:05:21;6.60;64.50
39777;DHT22;25453;48.162;14.510;2023-12-28T11:07:50;6.50;64.70
39777;DHT22;25453;48.162;14.510;2023-12-28T11:10:24;6.50;65.20
39777;DHT22;25453;48.162;14.510;2023-12-28T11:12:53;6.50;65.50
39777;DHT22;25453;48.162;14.510;2023-12-28T11:15:22;6.60;65.70
39777;DHT22;25453;48.162;14.510;2023-12-28T11:17:51;6.60;65.80
39777;DHT22;25453;48.162;14.510;2023-12-28T11:20:19;6.60;66.30
39777;DHT22;25453;48.162;14.510;2023-12-28T11:22:48;6.60;66.50
39777;DHT22;25453;48.162;14.510;2023-12-28T11:25:17;6.70;66.70
39777;DHT22;25453;48.162;14.510;2023-12-28T11:27:46;6.80;67.30
39777;DHT22;25453;48.162;14.510;2023-12-28T11:30:14;6.90;67.50
39777;DHT22;25453;48.162;14.510;2023-12-28T11:32:42;7.00;67.30
39777;DHT22;25453;48.162;14.510;2023-12-28T11:35:13;7.10;67.30
39777;DHT22;25453;48.162;14.510;2023-12-28T11:37:47;7.20;67.40
39777;DHT22;25453;48.162;14.510;2023-12-28T11:40:18;7.30;67.50
39777;DHT22;25453;48.162;14.510;2023-12-28T11:42:54;7.40;67.60
39777;DHT22;25453;48.162;14.510;2023-12-28T11:45:22;7.50;67.60
39777;DHT22;25453;48.162;14.510;2023-12-28T11:48:03;7.60;67.70
39777;DHT22;25453;48.162;14.510;2023-12-28T11:50:32;7.80;67.80
39777;DHT22;25453;48.162;14.510;2023-12-28T11:52:59;7.80;67.80
39777;DHT22;25453;48.162;14.510;2023-12-28T11:55:27;7.90;67.50
39777;DHT22;25453;48.162;14.510;2023-12-28T11:57:54;8.00;67.50
39777;DHT22;25453;48.162;14.510;2023-12-28T12:00:23;8.10;67.60
39777;DHT22;25453;48.162;14.510;2023-12-28T12:02:53;8.20;67.50
39777;DHT22;25453;48.162;14.510;2023-12-28T12:05:23;8.20;67.60
39777;DHT22;25453;48.162;14.510;2023-12-28T12:07:51;8.30;67.80
39777;DHT22;25453;48.162;14.510;2023-12-28T12:10:18;8.40;67.90
39777;DHT22;25453;48.162;14.510;2023-12-28T12:12:45;8.50;67.70
39777;DHT22;25453;48.162;14.510;2023-12-28T12:15:13;8.60;67.50
39777;DHT22;25453;48.162;14.510;2023-12-28T12:17:41;8.60;67.60
39777;DHT22;25453;48.162;14.510;2023-12-28T12:20:08;8.60;67.60
39777;DHT22;25453;48.162;14.510;2023-12-28T12:22:36;8.70;67.70
39777;DHT22;25453;48.162;14.510;2023-12-28T12:25:05;8.80;67.80
39777;DHT22;25453;48.162;14.510;2023-12-28T12:27:34;8.90;67.90
39777;DHT22;25453;48.162;14.510;2023-12-28T12:30:01;8.90;67.70
39777;DHT22;25453;48.162;14.510;2023-12-28T12:32:28;8.90;67.60
39777;DHT22;25453;48.162;14.510;2023-12-28T12:34:57;8.90;67.60
39777;DHT22;25453;48.162;14.510;2023-12-28T12:37:24;8.80;67.60
39777;DHT22;25453;48.162;14.510;2023-12-28T12:39:53;8.80;67.50
39777;DHT22;25453;48.162;14.510;2023-12-28T12:42:21;8.70;67.70
39777;DHT22;25453;48.162;14.510;2023-12-28T12:44:49;8.70;67.80
39777;DHT22;25453;48.162;14.510;2023-12-28T12:47:16;8.70;67.70
39777;DHT22;25453;48.162;14.510;2023-12-28T12:49:44;8.60;67.90
39777;DHT22;25453;48.162;14.510;2023-12-28T12:52:12;8.60;68.00
39777;DHT22;25453;48.162;14.510;2023-12-28T12:54:40;8.60;68.00
39777;DHT22;25453;48.162;14.510;2023-12-28T12:57:07;8.50;68.00
39777;DHT22;25453;48.162;14.510;2023-12-28T12:59:34;8.50;68.20
39777;DHT22;25453;48.162;14.510;2023-12-28T13:02:02;8.50;68.50
39777;DHT22;25453;48.162;14.510;2023-12-28T13:04:29;8.50;68.80
39777;DHT22;25453;48.162;14.510;2023-12-28T13:06:56;8.50;68.90
39777;DHT22;25453;48.162;14.510;2023-12-28T13:09:24;8.50;69.00
39777;DHT22;25453;48.162;14.510;2023-12-28T13:11:52;8.50;69.10
39777;DHT22;25453;48.162;14.510;2023-12-28T13:14:19;8.60;69.20
39777;DHT22;25453;48.162;14.510;2023-12-28T13:16:47;8.60;69.20
39777;DHT22;25453;48.162;14.510;2023-12-28T13:19:23;8.60;69.30
39777;DHT22;25453;48.162;14.510;2023-12-28T13:21:51;8.60;69.30
39777;DHT22;25453;48.162;14.510;2023-12-28T13:24:18;8.70;69.50
39777;DHT22;25453;48.162;14.510;2023-12-28T13:26:46;8.70;69.60
39777;DHT22;25453;48.162;14.510;2023-12-28T13:29:13;8.70;69.60
39777;DHT22;25453;48.162;14.510;2023-12-28T13:31:40;8.70;69.50
39777;DHT22;25453;48.162;14.510;2023-12-28T13:34:08;8.70;69.50
39777;DHT22;25453;48.162;14.510;2023-12-28T13:36:36;8.70;69.50
39777;DHT22;25453;48.162;14.510;2023-12-28T13:39:04;8.70;69.40
39777;DHT22;25453;48.162;14.510;2023-12-28T13:41:32;8.60;69.50
39777;DHT22;25453;48.162;14.510;2023-12-28T13:43:59;8.60;69.70
39777;DHT22;25453;48.162;14.510;2023-12-28T13:46:31;8.60;69.70
39777;DHT22;25453;48.162;14.510;2023-12-28T13:48:58;8.60;69.70
39777;DHT22;25453;48.162;14.510;2023-12-28T13:51:25;8.50;69.80
39777;DHT22;25453;48.162;14.510;2023-12-28T13:53:52;8.50;69.90
39777;DHT22;25453;48.162;14.510;2023-12-28T13:56:20;8.50;70.00
39777;DHT22;25453;48.162;14.510;2023-12-28T13:58:47;8.50;70.20
39777;DHT22;25453;48.162;14.510;2023-12-28T14:01:15;8.50;70.30
39777;DHT22;25453;48.162;14.510;2023-12-28T14:03:43;8.50;70.30
39777;DHT22;25453;48.162;14.510;2023-12-28T14:06:12;8.50;70.20
39777;DHT22;25453;48.162;14.510;2023-12-28T14:08:40;8.50;70.40
39777;DHT22;25453;48.162;14.510;2023-12-28T14:11:07;8.50;70.40
39777;DHT22;25453;48.162;14.510;2023-12-28T14:13:34;8.50;70.60
39777;DHT22;25453;48.162;14.510;2023-12-28T14:16:03;8.40;70.60
39777;DHT22;25453;48.162;14.510;2023-12-28T14:18:42;8.40;70.70
39777;DHT22;25453;48.162;14.510;2023-12-28T14:21:11;8.40;70.80
39777;DHT22;25453;48.162;14.510;2023-12-28T14:23:40;8.40;70.90
39777;DHT22;25453;48.162;14.510;2023-12-28T14:26:15;8.40;71.00
39777;DHT22;25453;48.162;14.510;2023-12-28T14:28:43;8.40;71.00
39777;DHT22;25453;48.162;14.510;2023-12-28T14:31:11;8.40;71.00
39777;DHT22;25453;48.162;14.510;2023-12-28T14:33:42;8.40;71.00
39777;DHT22;25453;48.162;14.510;2023-12-28T14:38:46;8.30;71.00
39777;DHT22;25453;48.162;14.510;2023-12-28T14:41:13;8.20;71.20
39777;DHT22;25453;48.162;14.510;2023-12-28T14:43:40;8.10;71.40
39777;DHT22;25453;48.162;14.510;2023-12-28T14:46:07;8.10;71.40
39777;DHT22;25453;48.162;14.510;2023-12-28T14:48:35;8.00;71.40
39777;DHT22;25453;48.162;14.510;2023-12-28T14:51:03;7.90;71.50
39777;DHT22;25453;48.162;14.510;2023-12-28T14:53:30;7.90;71.80
39777;DHT22;25453;48.162;14.510;2023-12-28T14:55:57;7.90;72.00
39777;DHT22;25453;48.162;14.510;2023-12-28T14:58:26;7.90;72.10
39777;DHT22;25453;48.162;14.510;2023-12-28T15:00:54;7.90;72.10
39777;DHT22;25453;48.162;14.510;2023-12-28T15:03:22;7.80;72.00
39777;DHT22;25453;48.162;14.510;2023-12-28T15:05:50;7.80;72.10
39777;DHT22;25453;48.162;14.510;2023-12-28T15:08:17;7.80;72.20
39777;DHT22;25453;48.162;14.510;2023-12-28T15:10:45;7.70;72.30
39777;DHT22;25453;48.162;14.510;2023-12-28T15:13:15;7.70;72.40
39777;DHT22;25453;48.162;14.510;2023-12-28T15:15:44;7.60;72.50
39777;DHT22;25453;48.162;14.510;2023-12-28T15:18:12;7.60;72.60
39777;DHT22;25453;48.162;14.510;2023-12-28T15:20:39;7.60;72.50
39777;DHT22;25453;48.162;14.510;2023-12-28T15:23:07;7.60;72.60
39777;DHT22;25453;48.162;14.510;2023-12-28T15:25:35;7.60;72.70
39777;DHT22;25453;48.162;14.510;2023-12-28T15:28:02;7.60;72.90
39777;DHT22;25453;48.162;14.510;2023-12-28T15:30:30;7.50;72.90
39777;DHT22;25453;48.162;14.510;2023-12-28T15:32:58;7.60;73.00
39777;DHT22;25453;48.162;14.510;2023-12-28T15:35:25;7.60;72.80
39777;DHT22;25453;48.162;14.510;2023-12-28T15:37:52;7.60;72.90
39777;DHT22;25453;48.162;14.510;2023-12-28T15:40:20;7.50;72.70